sensor_id;sensor_type;location;lat;lon;timestamp;pressure;altitude;pressure_sealevel;temperature;humidity
41515;BME280;27247;48.020;16.720;2024-02-21T00:00:21;100824.50;;;7.47;82.50
41515;BME280;27247;48.020;16.720;2024-02-21T00:04:32;100825.47;;;7.46;82.71
41515;BME280;27247;48.020;16.720;2024-02-21T00:08:42;100822.13;;;7.44;83.73
41515;BME280;27247;48.020;16.720;2024-02-21T00:12:52;100817.91;;;7.42;83.65
41515;BME280;27247;48.020;16.720;2024-02-21T00:17:03;100805.44;;;7.42;84.16
41515;BME280;27247;48.020;16.720;2024-02-21T00:21:13;100805.97;;;7.36;83.83
41515;BME280;27247;48.020;16.720;2024-02-21T00:25:28;100815.06;;;7.33;84.13
41515;BME280;27247;48.020;16.720;2024-02-21T00:29:38;100799.72;;;7.26;85.00
41515;BME280;27247;48.020;16.720;2024-02-21T00:33:49;100803.75;;;7.20;85.99
41515;BME280;27247;48.020;16.720;2024-02-21T00:37:59;100803.56;;;7.12;86.25
41515;BME280;27247;48.020;16.720;2024-02-21T00:42:09;100797.53;;;7.10;86.62
41515;BME280;27247;48.020;16.720;2024-02-21T00:46:20;100789.22;;;7.03;87.02
41515;BME280;27247;48.020;16.720;2024-02-21T00:50:30;100788.50;;;7.01;85.99
41515;BME280;27247;48.020;16.720;2024-02-21T00:54:40;100779.13;;;6.97;85.91
41515;BME280;27247;48.020;16.720;2024-02-21T00:58:51;100776.91;;;7.02;86.10
41515;BME280;27247;48.020;16.720;2024-02-21T01:03:01;100781.50;;;7.00;86.06
41515;BME280;27247;48.020;16.720;2024-02-21T01:07:12;100783.91;;;7.03;84.94
41515;BME280;27247;48.020;16.720;2024-02-21T01:11:22;100779.56;;;7.02;84.93
41515;BME280;27247;48.020;16.720;2024-02-21T01:15:32;100776.91;;;7.02;84.66
41515;BME280;27247;48.020;16.720;2024-02-21T01:19:43;100774.13;;;7.04;84.48
41515;BME280;27247;48.020;16.720;2024-02-21T01:23:53;100772.00;;;6.98;84.68
41515;BME280;27247;48.020;16.720;2024-02-21T01:28:04;100778.28;;;6.97;84.43
41515;BME280;27247;48.020;16.720;2024-02-21T01:32:14;100762.78;;;7.02;84.74
41515;BME280;27247;48.020;16.720;2024-02-21T01:36:24;100746.97;;;7.00;84.29
41515;BME280;27247;48.020;16.720;2024-02-21T01:40:34;100753.13;;;7.01;83.41
41515;BME280;27247;48.020;16.720;2024-02-21T01:44:45;100752.59;;;7.07;83.45
41515;BME280;27247;48.020;16.720;2024-02-21T01:48:56;100742.94;;;7.06;82.26
41515;BME280;27247;48.020;16.720;2024-02-21T01:53:07;100738.59;;;7.05;82.33
41515;BME280;27247;48.020;16.720;2024-02-21T01:57:18;100733.03;;;7.08;81.53
41515;BME280;27247;48.020;16.720;2024-02-21T02:01:29;100736.97;;;7.14;81.80
41515;BME280;27247;48.020;16.720;2024-02-21T02:05:40;100734.59;;;7.11;81.45
41515;BME280;27247;48.020;16.720;2024-02-21T02:09:51;100739.91;;;7.11;80.98
41515;BME280;27247;48.020;16.720;2024-02-21T02:14:01;100736.97;;;7.14;81.18
41515;BME280;27247;48.020;16.720;2024-02-21T02:18:14;100727.44;;;7.11;81.33
41515;BME280;27247;48.020;16.720;2024-02-21T02:22:28;100732.06;;;7.09;81.66
41515;BME280;27247;48.020;16.720;2024-02-21T02:26:39;100724.53;;;7.14;81.93
41515;BME280;27247;48.020;16.720;2024-02-21T02:30:50;100721.16;;;7.12;81.65
41515;BME280;27247;48.020;16.720;2024-02-21T02:35:00;100719.09;;;7.16;81.52
41515;BME280;27247;48.020;16.720;2024-02-21T02:39:11;100717.53;;;7.13;81.15
41515;BME280;27247;48.020;16.720;2024-02-21T02:43:21;100714.75;;;7.15;81.57
41515;BME280;27247;48.020;16.720;2024-02-21T02:47:31;100708.59;;;7.14;81.84
41515;BME280;27247;48.020;16.720;2024-02-21T02:51:42;100711.25;;;7.14;81.81
41515;BME280;27247;48.020;16.720;2024-02-21T02:55:53;100710.66;;;7.11;81.75
41515;BME280;27247;48.020;16.720;2024-02-21T03:00:04;100702.25;;;7.05;82.32
41515;BME280;27247;48.020;16.720;2024-02-21T03:04:16;100713.59;;;7.08;81.97
41515;BME280;27247;48.020;16.720;2024-02-21T03:08:27;100708.28;;;7.08;81.70
41515;BME280;27247;48.020;16.720;2024-02-21T03:12:37;100698.69;;;6.95;81.38
41515;BME280;27247;48.020;16.720;2024-02-21T03:16:48;100697.91;;;7.04;81.22
41515;BME280;27247;48.020;16.720;2024-02-21T03:21:01;100701.75;;;6.91;81.20
41515;BME280;27247;48.020;16.720;2024-02-21T03:25:11;100691.97;;;6.91;80.96
41515;BME280;27247;48.020;16.720;2024-02-21T03:29:22;100696.31;;;6.92;80.57
41515;BME280;27247;48.020;16.720;2024-02-21T03:33:33;100695.38;;;7.03;79.98
41515;BME280;27247;48.020;16.720;2024-02-21T03:37:45;100694.97;;;7.08;80.35
41515;BME280;27247;48.020;16.720;2024-02-21T03:41:55;100694.31;;;7.15;80.36
41515;BME280;27247;48.020;16.720;2024-02-21T03:46:06;100699.41;;;6.97;79.97
41515;BME280;27247;48.020;16.720;2024-02-21T03:50:16;100684.09;;;7.11;79.83
41515;BME280;27247;48.020;16.720;2024-02-21T03:54:27;100684.09;;;7.11;80.25
41515;BME280;27247;48.020;16.720;2024-02-21T03:58:37;100688.28;;;7.13;80.12
41515;BME280;27247;48.020;16.720;2024-02-21T04:02:47;100688.44;;;7.12;79.70
41515;BME280;27247;48.020;16.720;2024-02-21T04:06:58;100689.97;;;7.14;79.34
41515;BME280;27247;48.020;16.720;2024-02-21T04:11:08;100686.91;;;7.19;79.81
41515;BME280;27247;48.020;16.720;2024-02-21T04:15:18;100688.03;;;7.16;79.62
41515;BME280;27247;48.020;16.720;2024-02-21T04:19:29;100687.28;;;7.04;78.95
41515;BME280;27247;48.020;16.720;2024-02-21T04:23:41;100691.66;;;7.15;78.74
41515;BME280;27247;48.020;16.720;2024-02-21T04:27:51;100688.47;;;7.21;79.00
41515;BME280;27247;48.020;16.720;2024-02-21T04:32:02;100694.50;;;7.23;78.97
41515;BME280;27247;48.020;16.720;2024-02-21T04:36:12;100691.78;;;7.14;80.15
41515;BME280;27247;48.020;16.720;2024-02-21T04:40:23;100687.19;;;7.16;80.90
41515;BME280;27247;48.020;16.720;2024-02-21T04:44:33;100692.31;;;7.08;81.56
41515;BME280;27247;48.020;16.720;2024-02-21T04:48:43;100673.53;;;6.99;81.96
41515;BME280;27247;48.020;16.720;2024-02-21T04:52:54;100671.09;;;6.87;82.10
41515;BME280;27247;48.020;16.720;2024-02-21T04:57:04;100671.63;;;6.81;82.65
41515;BME280;27247;48.020;16.720;2024-02-21T05:01:15;100673.13;;;6.73;82.78
41515;BME280;27247;48.020;16.720;2024-02-21T05:05:26;100673.75;;;6.66;83.56
41515;BME280;27247;48.020;16.720;2024-02-21T05:09:36;100675.25;;;6.59;83.91
41515;BME280;27247;48.020;16.720;2024-02-21T05:13:47;100671.44;;;6.52;84.44
41515;BME280;27247;48.020;16.720;2024-02-21T05:17:57;100672.78;;;6.46;84.92
41515;BME280;27247;48.020;16.720;2024-02-21T05:22:07;100664.13;;;6.44;84.81
41515;BME280;27247;48.020;16.720;2024-02-21T05:26:21;100675.97;;;6.40;85.59
41515;BME280;27247;48.020;16.720;2024-02-21T05:30:32;100667.53;;;6.35;85.55
41515;BME280;27247;48.020;16.720;2024-02-21T05:34:42;100665.16;;;6.32;86.35
41515;BME280;27247;48.020;16.720;2024-02-21T05:38:53;100675.75;;;6.32;86.48
41515;BME280;27247;48.020;16.720;2024-02-21T05:43:03;100673.81;;;6.34;86.02
41515;BME280;27247;48.020;16.720;2024-02-21T05:47:13;100679.00;;;6.35;86.14
41515;BME280;27247;48.020;16.720;2024-02-21T05:51:25;100677.91;;;6.38;86.26
41515;BME280;27247;48.020;16.720;2024-02-21T05:55:35;100671.88;;;6.36;86.00
41515;BME280;27247;48.020;16.720;2024-02-21T05:59:46;100669.34;;;6.34;85.85
41515;BME280;27247;48.020;16.720;2024-02-21T06:03:56;100671.41;;;6.31;85.41
41515;BME280;27247;48.020;16.720;2024-02-21T06:08:07;100671.31;;;6.21;86.53
41515;BME280;27247;48.020;16.720;2024-02-21T06:12:18;100677.72;;;6.19;86.80
41515;BME280;27247;48.020;16.720;2024-02-21T06:16:28;100668.66;;;6.21;87.68
41515;BME280;27247;48.020;16.720;2024-02-21T06:20:38;100674.34;;;6.28;88.05
41515;BME280;27247;48.020;16.720;2024-02-21T06:24:50;100665.41;;;6.29;88.08
41515;BME280;27247;48.020;16.720;2024-02-21T06:29:01;100676.81;;;6.40;88.36
41515;BME280;27247;48.020;16.720;2024-02-21T06:33:11;100674.59;;;6.46;88.23
41515;BME280;27247;48.020;16.720;2024-02-21T06:37:22;100677.50;;;6.43;88.50
41515;BME280;27247;48.020;16.720;2024-02-21T06:41:32;100675.19;;;6.49;88.80
41515;BME280;27247;48.020;16.720;2024-02-21T06:45:44;100679.13;;;6.34;89.74
41515;BME280;27247;48.020;16.720;2024-02-21T06:49:57;100680.22;;;6.31;89.61
41515;BME280;27247;48.020;16.720;2024-02-21T06:54:07;100678.03;;;6.36;89.66
41515;BME280;27247;48.020;16.720;2024-02-21T06:58:18;100670.78;;;6.38;88.13
41515;BME280;27247;48.020;16.720;2024-02-21T07:02:28;100675.56;;;6.45;87.80
41515;BME280;27247;48.020;16.720;2024-02-21T07:06:38;100668.06;;;6.50;87.36
41515;BME280;27247;48.020;16.720;2024-02-21T07:10:48;100672.94;;;6.65;86.64
41515;BME280;27247;48.020;16.720;2024-02-21T07:14:59;100679.28;;;6.74;86.33
41515;BME280;27247;48.020;16.720;2024-02-21T07:19:09;100670.69;;;6.91;86.41
41515;BME280;27247;48.020;16.720;2024-02-21T07:23:19;100673.72;;;7.08;87.63
41515;BME280;27247;48.020;16.720;2024-02-21T07:27:30;100666.31;;;7.32;85.62
41515;BME280;27247;48.020;16.720;2024-02-21T07:31:44;100661.75;;;7.53;84.07
41515;BME280;27247;48.020;16.720;2024-02-21T07:35:54;100656.75;;;7.69;81.27
41515;BME280;27247;48.020;16.720;2024-02-21T07:40:06;100657.06;;;7.86;80.84
41515;BME280;27247;48.020;16.720;2024-02-21T07:44:16;100659.72;;;7.95;80.61
41515;BME280;27247;48.020;16.720;2024-02-21T07:48:26;100657.06;;;8.05;79.61
41515;BME280;27247;48.020;16.720;2024-02-21T07:52:37;100652.47;;;8.17;79.72
41515;BME280;27247;48.020;16.720;2024-02-21T07:56:47;100643.06;;;8.32;77.72
41515;BME280;27247;48.020;16.720;2024-02-21T08:00:57;100643.13;;;8.42;76.86
41515;BME280;27247;48.020;16.720;2024-02-21T08:05:08;100642.13;;;8.52;74.77
41515;BME280;27247;48.020;16.720;2024-02-21T08:09:19;100638.47;;;8.53;74.07
41515;BME280;27247;48.020;16.720;2024-02-21T08:13:29;100641.81;;;8.65;74.51
41515;BME280;27247;48.020;16.720;2024-02-21T08:17:41;100645.44;;;8.74;74.96
41515;BME280;27247;48.020;16.720;2024-02-21T08:21:52;100639.81;;;8.86;74.07
41515;BME280;27247;48.020;16.720;2024-02-21T08:26:05;100635.16;;;8.88;71.55
41515;BME280;27247;48.020;16.720;2024-02-21T08:30:15;100622.03;;;9.14;71.06
41515;BME280;27247;48.020;16.720;2024-02-21T08:34:26;100619.75;;;9.19;71.12
41515;BME280;27247;48.020;16.720;2024-02-21T08:38:36;100619.25;;;9.43;70.13
41515;BME280;27247;48.020;16.720;2024-02-21T08:42:47;100617.94;;;9.47;69.58
41515;BME280;27247;48.020;16.720;2024-02-21T08:46:57;100611.88;;;9.73;69.42
41515;BME280;27247;48.020;16.720;2024-02-21T08:51:07;100612.88;;;9.89;68.87
41515;BME280;27247;48.020;16.720;2024-02-21T08:55:18;100615.25;;;10.10;68.60
41515;BME280;27247;48.020;16.720;2024-02-21T08:59:28;100614.34;;;10.19;68.41
41515;BME280;27247;48.020;16.720;2024-02-21T09:03:39;100597.63;;;10.35;67.71
41515;BME280;27247;48.020;16.720;2024-02-21T09:07:49;100602.66;;;10.38;67.67
41515;BME280;27247;48.020;16.720;2024-02-21T09:11:59;100599.94;;;10.30;68.13
41515;BME280;27247;48.020;16.720;2024-02-21T09:16:15;100600.56;;;10.42;67.63
41515;BME280;27247;48.020;16.720;2024-02-21T09:20:26;100593.16;;;10.62;67.94
41515;BME280;27247;48.020;16.720;2024-02-21T09:24:36;100587.50;;;10.91;67.26
41515;BME280;27247;48.020;16.720;2024-02-21T09:28:46;100585.88;;;11.06;65.60
41515;BME280;27247;48.020;16.720;2024-02-21T09:32:57;100575.91;;;11.16;64.27
41515;BME280;27247;48.020;16.720;2024-02-21T09:37:09;100572.94;;;11.27;64.92
41515;BME280;27247;48.020;16.720;2024-02-21T09:41:25;100569.00;;;11.47;64.03
41515;BME280;27247;48.020;16.720;2024-02-21T09:45:38;100569.53;;;11.59;63.33
41515;BME280;27247;48.020;16.720;2024-02-21T09:49:48;100567.28;;;11.97;62.94
41515;BME280;27247;48.020;16.720;2024-02-21T09:53:59;100568.13;;;12.22;63.00
41515;BME280;27247;48.020;16.720;2024-02-21T09:58:10;100564.09;;;12.50;61.38
41515;BME280;27247;48.020;16.720;2024-02-21T10:02:20;100561.75;;;12.55;61.44
41515;BME280;27247;48.020;16.720;2024-02-21T10:06:31;100548.63;;;12.68;60.31
41515;BME280;27247;48.020;16.720;2024-02-21T10:10:43;100543.47;;;13.06;60.49
41515;BME280;27247;48.020;16.720;2024-02-21T10:15:01;100526.97;;;13.25;58.90
41515;BME280;27247;48.020;16.720;2024-02-21T10:19:19;100526.84;;;13.19;58.66
41515;BME280;27247;48.020;16.720;2024-02-21T10:23:40;100523.47;;;13.25;58.90
41515;BME280;27247;48.020;16.720;2024-02-21T10:27:50;100517.25;;;13.24;56.48
41515;BME280;27247;48.020;16.720;2024-02-21T10:32:08;100512.63;;;13.41;57.11
41515;BME280;27247;48.020;16.720;2024-02-21T10:36:19;100511.56;;;13.19;57.56
41515;BME280;27247;48.020;16.720;2024-02-21T10:40:29;100507.31;;;12.94;57.66
41515;BME280;27247;48.020;16.720;2024-02-21T10:44:41;100500.78;;;12.88;58.65
41515;BME280;27247;48.020;16.720;2024-02-21T10:49:01;100495.28;;;12.82;56.69
41515;BME280;27247;48.020;16.720;2024-02-21T10:53:29;100498.47;;;13.16;56.78
41515;BME280;27247;48.020;16.720;2024-02-21T10:57:45;100486.44;;;13.43;57.47
41515;BME280;27247;48.020;16.720;2024-02-21T11:01:56;100476.31;;;13.76;56.12
41515;BME280;27247;48.020;16.720;2024-02-21T11:06:07;100475.09;;;14.01;56.69
41515;BME280;27247;48.020;16.720;2024-02-21T11:10:26;100455.47;;;14.30;56.98
41515;BME280;27247;48.020;16.720;2024-02-21T11:14:38;100449.19;;;14.53;55.17
41515;BME280;27247;48.020;16.720;2024-02-21T11:18:49;100434.00;;;14.60;53.49
41515;BME280;27247;48.020;16.720;2024-02-21T11:23:00;100432.34;;;14.59;53.66
41515;BME280;27247;48.020;16.720;2024-02-21T11:27:21;100424.03;;;14.31;53.53
41515;BME280;27247;48.020;16.720;2024-02-21T11:31:42;100425.16;;;14.22;54.02
41515;BME280;27247;48.020;16.720;2024-02-21T11:35:52;100418.38;;;14.26;53.24
41515;BME280;27247;48.020;16.720;2024-02-21T11:40:03;100416.06;;;14.08;55.89
41515;BME280;27247;48.020;16.720;2024-02-21T11:44:14;100407.63;;;13.96;54.79
41515;BME280;27247;48.020;16.720;2024-02-21T11:48:25;100404.25;;;13.80;53.52
41515;BME280;27247;48.020;16.720;2024-02-21T11:52:35;100407.63;;;13.59;53.99
41515;BME280;27247;48.020;16.720;2024-02-21T11:56:46;100403.94;;;13.60;53.63
41515;BME280;27247;48.020;16.720;2024-02-21T12:00:56;100391.75;;;13.49;53.55
41515;BME280;27247;48.020;16.720;2024-02-21T12:05:07;100389.03;;;13.57;55.28
41515;BME280;27247;48.020;16.720;2024-02-21T12:09:18;100378.63;;;13.54;54.24
41515;BME280;27247;48.020;16.720;2024-02-21T12:13:28;100373.78;;;13.72;53.88
41515;BME280;27247;48.020;16.720;2024-02-21T12:17:39;100368.75;;;13.69;54.02
41515;BME280;27247;48.020;16.720;2024-02-21T12:21:50;100363.19;;;13.56;52.85
41515;BME280;27247;48.020;16.720;2024-02-21T12:26:06;100362.38;;;13.48;53.55
41515;BME280;27247;48.020;16.720;2024-02-21T12:30:18;100356.00;;;13.49;52.32
41515;BME280;27247;48.020;16.720;2024-02-21T12:34:29;100346.59;;;13.53;52.47
41515;BME280;27247;48.020;16.720;2024-02-21T12:38:42;100349.56;;;13.58;53.66
41515;BME280;27247;48.020;16.720;2024-02-21T12:42:54;100348.91;;;13.56;53.26
41515;BME280;27247;48.020;16.720;2024-02-21T12:47:09;100330.34;;;13.46;52.88
41515;BME280;27247;48.020;16.720;2024-02-21T12:51:27;100337.00;;;13.35;54.36
41515;BME280;27247;48.020;16.720;2024-02-21T12:55:38;100334.84;;;13.31;54.28
41515;BME280;27247;48.020;16.720;2024-02-21T12:59:51;100325.69;;;13.25;54.74
41515;BME280;27247;48.020;16.720;2024-02-21T13:04:01;100316.31;;;13.21;54.82
41515;BME280;27247;48.020;16.720;2024-02-21T13:08:17;100297.47;;;13.29;54.83
41515;BME280;27247;48.020;16.720;2024-02-21T13:12:43;100297.47;;;13.29;53.94
41515;BME280;27247;48.020;16.720;2024-02-21T13:16:56;100292.16;;;13.21;53.93
41515;BME280;27247;48.020;16.720;2024-02-21T13:21:07;100286.06;;;13.27;53.58
41515;BME280;27247;48.020;16.720;2024-02-21T13:25:17;100286.06;;;13.27;54.39
41515;BME280;27247;48.020;16.720;2024-02-21T13:29:30;100281.19;;;13.08;53.62
41515;BME280;27247;48.020;16.720;2024-02-21T13:33:40;100275.88;;;13.00;54.57
41515;BME280;27247;48.020;16.720;2024-02-21T13:37:51;100257.00;;;12.93;53.57
41515;BME280;27247;48.020;16.720;2024-02-21T13:42:02;100269.50;;;13.01;54.30
41515;BME280;27247;48.020;16.720;2024-02-21T13:46:15;100258.41;;;13.04;54.05
41515;BME280;27247;48.020;16.720;2024-02-21T13:50:30;100250.06;;;12.99;52.41
41515;BME280;27247;48.020;16.720;2024-02-21T13:54:41;100240.66;;;13.03;52.30
41515;BME280;27247;48.020;16.720;2024-02-21T13:58:52;100240.84;;;13.16;52.30
41515;BME280;27247;48.020;16.720;2024-02-21T14:03:03;100240.19;;;13.37;51.69
41515;BME280;27247;48.020;16.720;2024-02-21T14:07:13;100245.84;;;13.86;51.91
41515;BME280;27247;48.020;16.720;2024-02-21T14:11:23;100235.31;;;14.21;49.32
41515;BME280;27247;48.020;16.720;2024-02-21T14:15:34;100226.72;;;14.11;49.96
41515;BME280;27247;48.020;16.720;2024-02-21T14:19:44;100213.22;;;14.04;50.66
41515;BME280;27247;48.020;16.720;2024-02-21T14:23:55;100199.47;;;14.92;50.92
41515;BME280;27247;48.020;16.720;2024-02-21T14:28:07;100198.59;;;15.13;47.92
41515;BME280;27247;48.020;16.720;2024-02-21T14:32:19;100201.88;;;14.59;49.45
41515;BME280;27247;48.020;16.720;2024-02-21T14:36:30;100201.63;;;14.03;50.39
41515;BME280;27247;48.020;16.720;2024-02-21T14:40:40;100200.13;;;13.65;50.77
41515;BME280;27247;48.020;16.720;2024-02-21T14:44:51;100201.38;;;13.39;51.39
41515;BME280;27247;48.020;16.720;2024-02-21T14:49:01;100201.38;;;13.25;52.42
41515;BME280;27247;48.020;16.720;2024-02-21T14:53:13;100194.78;;;13.13;51.46
41515;BME280;27247;48.020;16.720;2024-02-21T14:57:23;100195.69;;;13.05;52.78
41515;BME280;27247;48.020;16.720;2024-02-21T15:01:36;100181.91;;;13.08;52.96
41515;BME280;27247;48.020;16.720;2024-02-21T15:05:50;100171.44;;;12.98;51.82
41515;BME280;27247;48.020;16.720;2024-02-21T15:10:06;100166.06;;;12.84;54.52
41515;BME280;27247;48.020;16.720;2024-02-21T15:14:17;100162.31;;;12.70;56.15
41515;BME280;27247;48.020;16.720;2024-02-21T15:18:28;100158.50;;;12.64;56.81
41515;BME280;27247;48.020;16.720;2024-02-21T15:22:38;100165.94;;;12.77;57.05
41515;BME280;27247;48.020;16.720;2024-02-21T15:26:48;100153.84;;;12.96;56.57
41515;BME280;27247;48.020;16.720;2024-02-21T15:30:59;100152.66;;;12.98;55.59
41515;BME280;27247;48.020;16.720;2024-02-21T15:35:13;100168.44;;;12.78;53.60
41515;BME280;27247;48.020;16.720;2024-02-21T15:39:24;100158.22;;;12.59;54.68
41515;BME280;27247;48.020;16.720;2024-02-21T15:43:37;100161.31;;;12.71;55.52
41515;BME280;27247;48.020;16.720;2024-02-21T15:47:48;100159.91;;;12.60;56.50
41515;BME280;27247;48.020;16.720;2024-02-21T15:51:58;100163.47;;;12.53;57.37
41515;BME280;27247;48.020;16.720;2024-02-21T15:56:09;100164.47;;;12.29;58.64
41515;BME280;27247;48.020;16.720;2024-02-21T16:00:19;100160.47;;;12.25;58.46
41515;BME280;27247;48.020;16.720;2024-02-21T16:04:30;100157.03;;;12.16;57.88
41515;BME280;27247;48.020;16.720;2024-02-21T16:08:41;100143.81;;;12.14;60.18
41515;BME280;27247;48.020;16.720;2024-02-21T16:12:52;100149.88;;;12.08;59.86
41515;BME280;27247;48.020;16.720;2024-02-21T16:17:05;100135.94;;;11.90;59.56
41515;BME280;27247;48.020;16.720;2024-02-21T16:21:16;100130.03;;;11.64;59.83
41515;BME280;27247;48.020;16.720;2024-02-21T16:25:26;100138.41;;;11.61;59.57
41515;BME280;27247;48.020;16.720;2024-02-21T16:29:37;100137.78;;;11.50;59.85
41515;BME280;27247;48.020;16.720;2024-02-21T16:33:47;100140.50;;;11.34;59.65
41515;BME280;27247;48.020;16.720;2024-02-21T16:37:58;100141.22;;;11.20;59.38
41515;BME280;27247;48.020;16.720;2024-02-21T16:42:08;100125.88;;;11.06;59.15
41515;BME280;27247;48.020;16.720;2024-02-21T16:46:20;100129.63;;;10.80;60.32
41515;BME280;27247;48.020;16.720;2024-02-21T16:50:31;100125.94;;;10.81;59.75
41515;BME280;27247;48.020;16.720;2024-02-21T16:54:41;100119.97;;;10.55;60.40
41515;BME280;27247;48.020;16.720;2024-02-21T16:58:51;100117.63;;;10.44;61.41
41515;BME280;27247;48.020;16.720;2024-02-21T17:03:02;100127.63;;;10.34;60.90
41515;BME280;27247;48.020;16.720;2024-02-21T17:07:13;100127.75;;;10.16;61.49
41515;BME280;27247;48.020;16.720;2024-02-21T17:11:23;100134.06;;;9.90;62.61
41515;BME280;27247;48.020;16.720;2024-02-21T17:15:33;100126.22;;;9.89;62.38
41515;BME280;27247;48.020;16.720;2024-02-21T17:19:43;100119.88;;;9.82;62.76
41515;BME280;27247;48.020;16.720;2024-02-21T17:23:54;100122.03;;;9.78;62.96
41515;BME280;27247;48.020;16.720;2024-02-21T17:28:05;100114.84;;;9.79;62.96
41515;BME280;27247;48.020;16.720;2024-02-21T17:32:15;100118.16;;;9.65;63.70
41515;BME280;27247;48.020;16.720;2024-02-21T17:36:25;100112.44;;;9.51;63.70
41515;BME280;27247;48.020;16.720;2024-02-21T17:40:36;100101.44;;;9.46;63.48
41515;BME280;27247;48.020;16.720;2024-02-21T17:44:46;100104.66;;;9.24;64.38
41515;BME280;27247;48.020;16.720;2024-02-21T17:48:58;100095.91;;;9.06;65.04
41515;BME280;27247;48.020;16.720;2024-02-21T17:53:09;100097.34;;;8.92;65.16
41515;BME280;27247;48.020;16.720;2024-02-21T17:57:19;100086.13;;;8.80;65.68
41515;BME280;27247;48.020;16.720;2024-02-21T18:01:29;100078.38;;;8.69;65.54
41515;BME280;27247;48.020;16.720;2024-02-21T18:05:41;100078.53;;;8.68;65.89
41515;BME280;27247;48.020;16.720;2024-02-21T18:09:51;100059.38;;;8.64;65.56
41515;BME280;27247;48.020;16.720;2024-02-21T18:14:01;100053.00;;;8.57;65.48
41515;BME280;27247;48.020;16.720;2024-02-21T18:18:14;100042.31;;;8.49;65.42
41515;BME280;27247;48.020;16.720;2024-02-21T18:22:25;100036.00;;;8.50;65.13
41515;BME280;27247;48.020;16.720;2024-02-21T18:26:40;100034.94;;;8.43;65.37
41515;BME280;27247;48.020;16.720;2024-02-21T18:30:50;100025.19;;;8.51;64.63
41515;BME280;27247;48.020;16.720;2024-02-21T18:35:01;100018.38;;;8.57;64.76
41515;BME280;27247;48.020;16.720;2024-02-21T18:39:16;100020.72;;;8.60;64.96
41515;BME280;27247;48.020;16.720;2024-02-21T18:43:26;100007.41;;;8.60;64.42
41515;BME280;27247;48.020;16.720;2024-02-21T18:47:37;99996.75;;;8.60;63.76
41515;BME280;27247;48.020;16.720;2024-02-21T18:51:47;99991.59;;;8.58;63.08
41515;BME280;27247;48.020;16.720;2024-02-21T18:55:57;99980.81;;;8.68;63.00
41515;BME280;27247;48.020;16.720;2024-02-21T19:00:08;99974.97;;;8.64;62.77
41515;BME280;27247;48.020;16.720;2024-02-21T19:04:20;99968.25;;;8.52;62.92
41515;BME280;27247;48.020;16.720;2024-02-21T19:08:34;99963.94;;;8.51;62.91
41515;BME280;27247;48.020;16.720;2024-02-21T19:12:45;99962.78;;;8.54;62.72
41515;BME280;27247;48.020;16.720;2024-02-21T19:16:55;99960.78;;;8.56;62.94
41515;BME280;27247;48.020;16.720;2024-02-21T19:21:06;99964.44;;;8.55;62.54
41515;BME280;27247;48.020;16.720;2024-02-21T19:25:18;99953.63;;;8.56;62.28
41515;BME280;27247;48.020;16.720;2024-02-21T19:29:31;99967.97;;;8.63;62.16
41515;BME280;27247;48.020;16.720;2024-02-21T19:33:41;99957.13;;;8.57;62.04
41515;BME280;27247;48.020;16.720;2024-02-21T19:37:52;99962.41;;;8.49;61.59
41515;BME280;27247;48.020;16.720;2024-02-21T19:42:03;99961.59;;;8.48;61.65
41515;BME280;27247;48.020;16.720;2024-02-21T19:46:14;99959.31;;;8.61;62.22
41515;BME280;27247;48.020;16.720;2024-02-21T19:50:24;99964.41;;;8.47;62.52
41515;BME280;27247;48.020;16.720;2024-02-21T19:54:41;99961.91;;;8.45;63.44
41515;BME280;27247;48.020;16.720;2024-02-21T19:58:52;99948.69;;;8.36;61.65
41515;BME280;27247;48.020;16.720;2024-02-21T20:03:02;99949.63;;;8.52;60.63
41515;BME280;27247;48.020;16.720;2024-02-21T20:07:16;99946.34;;;8.67;60.03
41515;BME280;27247;48.020;16.720;2024-02-21T20:11:27;99936.50;;;9.17;58.72
41515;BME280;27247;48.020;16.720;2024-02-21T20:15:40;99932.16;;;9.24;57.62
41515;BME280;27247;48.020;16.720;2024-02-21T20:19:52;99921.00;;;9.21;57.88
41515;BME280;27247;48.020;16.720;2024-02-21T20:24:02;99924.66;;;9.20;58.14
41515;BME280;27247;48.020;16.720;2024-02-21T20:28:14;99915.13;;;8.93;58.81
41515;BME280;27247;48.020;16.720;2024-02-21T20:32:24;99894.13;;;8.98;58.76
41515;BME280;27247;48.020;16.720;2024-02-21T20:36:35;99884.13;;;8.92;59.91
41515;BME280;27247;48.020;16.720;2024-02-21T20:40:45;99889.91;;;8.71;60.74
41515;BME280;27247;48.020;16.720;2024-02-21T20:44:55;99878.06;;;8.57;62.39
41515;BME280;27247;48.020;16.720;2024-02-21T20:49:06;99892.22;;;8.32;64.25
41515;BME280;27247;48.020;16.720;2024-02-21T20:53:16;99896.47;;;8.17;65.01
41515;BME280;27247;48.020;16.720;2024-02-21T20:57:27;99895.66;;;7.90;64.84
41515;BME280;27247;48.020;16.720;2024-02-21T21:01:38;99885.41;;;8.04;64.66
41515;BME280;27247;48.020;16.720;2024-02-21T21:05:49;99870.59;;;8.01;63.54
41515;BME280;27247;48.020;16.720;2024-02-21T21:10:02;99863.34;;;8.11;63.57
41515;BME280;27247;48.020;16.720;2024-02-21T21:14:14;99853.03;;;8.16;63.16
41515;BME280;27247;48.020;16.720;2024-02-21T21:18:24;99849.03;;;8.12;65.04
41515;BME280;27247;48.020;16.720;2024-02-21T21:22:36;99841.44;;;7.91;67.10
41515;BME280;27247;48.020;16.720;2024-02-21T21:26:46;99837.72;;;7.76;68.93
41515;BME280;27247;48.020;16.720;2024-02-21T21:30:56;99820.16;;;7.57;69.31
41515;BME280;27247;48.020;16.720;2024-02-21T21:35:07;99816.19;;;7.35;71.09
41515;BME280;27247;48.020;16.720;2024-02-21T21:39:18;99819.69;;;7.18;71.55
41515;BME280;27247;48.020;16.720;2024-02-21T21:43:28;99803.44;;;7.03;72.15
41515;BME280;27247;48.020;16.720;2024-02-21T21:47:38;99806.88;;;6.78;73.52